createdAt,value
2018-08-31T00:00:40.807Z,0.00
2018-08-31T00:01:40.788Z,0.00
2018-08-31T00:02:40.772Z,0.00
2018-08-31T00:03:40.752Z,0.00
2018-08-31T00:04:40.739Z,0.00
2018-08-31T00:05:40.717Z,0.00
2018-08-31T00:06:40.707Z,0.00
2018-08-31T00:07:40.682Z,0.00
2018-08-31T00:08:40.666Z,0.00
2018-08-31T00:09:40.647Z,0.00
2018-08-31T00:10:40.628Z,0.00
2018-08-31T00:11:40.622Z,0.00
2018-08-31T00:12:40.595Z,0.00
2018-08-31T00:13:40.573Z,0.00
2018-08-31T00:14:40.559Z,0.00
2018-08-31T00:15:40.542Z,0.00
2018-08-31T00:16:40.517Z,0.00
2018-08-31T00:17:40.500Z,0.00
2018-08-31T00:18:40.483Z,0.00
2018-08-31T00:19:40.465Z,0.00
2018-08-31T00:20:40.445Z,0.00
2018-08-31T00:21:40.430Z,0.00
2018-08-31T00:22:40.408Z,0.00
2018-08-31T00:23:40.392Z,0.00
2018-08-31T00:24:40.379Z,0.00
2018-08-31T00:25:40.355Z,0.00
2018-08-31T00:26:40.337Z,0.00
2018-08-31T00:27:40.319Z,0.00
2018-08-31T00:28:40.304Z,0.00
2018-08-31T00:29:40.281Z,0.00
2018-08-31T00:30:40.262Z,0.00
2018-08-31T00:31:40.245Z,0.00
2018-08-31T00:32:40.228Z,0.00
2018-08-31T00:33:40.218Z,0.00
2018-08-31T00:34:40.192Z,0.00
2018-08-31T00:35:40.173Z,0.00
2018-08-31T00:36:40.154Z,0.00
2018-08-31T00:37:40.138Z,0.00
2018-08-31T00:38:40.119Z,0.00
2018-08-31T00:39:40.100Z,0.00
2018-08-31T00:40:40.081Z,0.00
2018-08-31T00:41:40.064Z,0.00
2018-08-31T00:42:40.045Z,0.00
2018-08-31T00:43:40.033Z,0.00
2018-08-31T00:44:40.014Z,0.00
2018-08-31T00:45:39.991Z,0.00
2018-08-31T00:46:39.976Z,0.00
2018-08-31T00:47:39.954Z,0.00
2018-08-31T00:48:39.952Z,0.00
2018-08-31T00:49:39.919Z,0.00
2018-08-31T00:50:39.906Z,0.00
2018-08-31T00:51:39.881Z,0.00
2018-08-31T00:52:39.864Z,0.00
2018-08-31T00:53:39.845Z,0.00
2018-08-31T00:54:39.826Z,0.00
2018-08-31T00:55:39.810Z,0.00
2018-08-31T00:56:39.791Z,0.00
2018-08-31T00:57:39.784Z,0.00
2018-08-31T00:58:39.756Z,0.00
2018-08-31T00:59:39.740Z,0.00
2018-08-31T01:00:39.717Z,0.00
2018-08-31T01:01:39.703Z,0.00
2018-08-31T01:02:39.682Z,0.00
2018-08-31T01:03:39.663Z,0.00
2018-08-31T01:04:39.645Z,0.00
2018-08-31T01:05:39.626Z,0.00
2018-08-31T01:06:39.608Z,0.00
2018-08-31T01:07:39.592Z,0.00
2018-08-31T01:08:39.572Z,0.00
2018-08-31T01:09:39.553Z,0.00
2018-08-31T01:10:39.536Z,0.00
2018-08-31T01:11:39.517Z,0.00
2018-08-31T01:12:39.498Z,0.00
2018-08-31T01:13:39.482Z,0.00
2018-08-31T01:14:39.467Z,0.00
2018-08-31T01:15:39.443Z,0.00
2018-08-31T01:16:39.429Z,0.00
2018-08-31T01:17:39.408Z,0.00
2018-08-31T01:18:39.389Z,0.00
2018-08-31T01:19:39.371Z,0.00
2018-08-31T01:20:39.352Z,0.00
2018-08-31T01:21:39.334Z,0.00
2018-08-31T01:22:39.319Z,0.00
2018-08-31T01:23:39.299Z,0.00
2018-08-31T01:24:39.279Z,0.00
2018-08-31T01:25:39.276Z,0.00
2018-08-31T01:26:39.244Z,0.00
2018-08-31T01:27:39.230Z,0.00
2018-08-31T01:28:39.206Z,0.00
2018-08-31T01:29:39.187Z,0.00
2018-08-31T01:30:39.173Z,0.00
2018-08-31T01:31:39.152Z,0.00
2018-08-31T01:32:39.134Z,0.00
2018-08-31T01:33:39.115Z,0.00
2018-08-31T01:34:39.097Z,0.00
2018-08-31T01:35:39.079Z,0.00
2018-08-31T01:36:39.059Z,0.00
2018-08-31T01:37:39.040Z,0.00
2018-08-31T01:38:39.024Z,0.00
2018-08-31T01:39:39.002Z,0.00
2018-08-31T01:40:38.984Z,0.00
2018-08-31T01:41:38.965Z,0.00
2018-08-31T01:42:38.948Z,0.00
2018-08-31T01:43:38.931Z,0.00
2018-08-31T01:44:38.911Z,0.00
2018-08-31T01:45:38.900Z,0.00
2018-08-31T01:46:38.878Z,0.00
2018-08-31T01:47:38.855Z,0.00
2018-08-31T01:48:38.838Z,0.00
2018-08-31T01:49:38.818Z,0.00
2018-08-31T01:50:38.806Z,0.00
2018-08-31T01:51:38.783Z,0.00
2018-08-31T01:52:38.802Z,0.00
2018-08-31T01:53:38.746Z,0.00
2018-08-31T01:54:38.727Z,0.00
2018-08-31T01:55:38.708Z,0.00
2018-08-31T01:56:38.690Z,0.00
2018-08-31T01:57:38.672Z,0.00
2018-08-31T01:58:38.657Z,0.00
2018-08-31T01:59:38.637Z,0.00
2018-08-31T02:00:38.617Z,0.00
2018-08-31T02:01:38.598Z,0.00
2018-08-31T02:02:38.581Z,0.00
2018-08-31T02:03:38.563Z,0.00
2018-08-31T02:04:38.541Z,0.00
2018-08-31T02:05:38.524Z,0.00
2018-08-31T02:06:38.507Z,0.00
2018-08-31T02:07:38.495Z,0.00
2018-08-31T02:08:38.467Z,0.00
2018-08-31T02:09:38.448Z,0.00
2018-08-31T02:10:38.428Z,0.00
2018-08-31T02:11:38.414Z,0.00
2018-08-31T02:12:38.394Z,0.00
2018-08-31T02:13:38.372Z,0.00
2018-08-31T02:14:38.356Z,0.00
2018-08-31T02:15:38.335Z,0.00
2018-08-31T02:16:38.318Z,0.00
2018-08-31T02:17:38.303Z,0.00
2018-08-31T02:18:38.281Z,0.00
2018-08-31T02:19:38.260Z,0.00
2018-08-31T02:20:38.243Z,0.00
2018-08-31T02:21:38.227Z,0.00
2018-08-31T02:22:38.207Z,0.00
2018-08-31T02:23:38.189Z,0.00
2018-08-31T02:24:38.168Z,0.00
2018-08-31T02:25:38.149Z,0.00
2018-08-31T02:26:38.134Z,0.00
2018-08-31T02:27:38.111Z,0.00
2018-08-31T02:28:38.095Z,0.00
2018-08-31T02:29:38.074Z,0.00
2018-08-31T02:30:38.056Z,0.00
2018-08-31T02:31:38.039Z,0.00
2018-08-31T02:32:38.018Z,0.00
2018-08-31T02:33:38.002Z,0.00
2018-08-31T02:34:37.982Z,0.00
2018-08-31T02:35:37.961Z,0.00
2018-08-31T02:36:37.945Z,0.00
2018-08-31T02:37:37.929Z,0.00
2018-08-31T02:38:37.907Z,0.00
2018-08-31T02:39:37.895Z,0.00
2018-08-31T02:40:37.869Z,0.00
2018-08-31T02:41:37.883Z,0.00
2018-08-31T02:42:37.839Z,0.00
2018-08-31T02:43:37.812Z,0.00
2018-08-31T02:44:37.797Z,0.00
2018-08-31T02:45:37.776Z,0.00
2018-08-31T02:46:37.756Z,0.00
2018-08-31T02:47:37.738Z,0.00
2018-08-31T02:48:37.719Z,0.00
2018-08-31T02:49:37.700Z,0.00
2018-08-31T02:50:37.681Z,0.00
2018-08-31T02:51:37.664Z,0.00
2018-08-31T02:52:37.644Z,0.00
2018-08-31T02:53:37.628Z,0.00
2018-08-31T02:54:37.606Z,0.00
2018-08-31T02:55:37.591Z,0.00
2018-08-31T02:56:37.569Z,0.00
2018-08-31T02:57:37.552Z,0.00
2018-08-31T02:58:37.533Z,0.00
2018-08-31T02:59:37.514Z,0.00
2018-08-31T03:00:37.494Z,0.00
2018-08-31T03:01:37.476Z,0.00
2018-08-31T03:02:37.456Z,0.00
2018-08-31T03:03:37.438Z,0.00
2018-08-31T03:04:37.420Z,0.00
2018-08-31T03:05:37.399Z,0.00
2018-08-31T03:06:37.392Z,0.00
2018-08-31T03:07:37.365Z,0.00
2018-08-31T03:08:37.343Z,0.00
2018-08-31T03:09:37.330Z,0.00
2018-08-31T03:10:37.306Z,0.00
2018-08-31T03:11:37.380Z,0.00
2018-08-31T03:12:37.267Z,0.00
2018-08-31T03:13:37.253Z,0.00
2018-08-31T03:14:37.232Z,0.00
2018-08-31T03:15:37.213Z,0.00
2018-08-31T03:16:37.196Z,0.00
2018-08-31T03:17:37.175Z,0.00
2018-08-31T03:18:37.158Z,0.00
2018-08-31T03:19:37.139Z,0.00
2018-08-31T03:20:37.118Z,0.00
2018-08-31T03:21:37.104Z,0.00
2018-08-31T03:22:37.087Z,0.00
2018-08-31T03:23:37.062Z,0.00
2018-08-31T03:24:37.045Z,0.00
2018-08-31T03:25:37.025Z,0.00
2018-08-31T03:26:37.005Z,0.00
2018-08-31T03:27:36.989Z,0.00
2018-08-31T03:28:36.966Z,0.00
2018-08-31T03:29:36.950Z,0.00
2018-08-31T03:30:36.933Z,0.00
2018-08-31T03:31:36.925Z,0.00
2018-08-31T03:32:36.892Z,0.00
2018-08-31T03:33:36.872Z,0.00
2018-08-31T03:34:36.856Z,0.00
2018-08-31T03:35:36.837Z,0.00
2018-08-31T03:36:36.816Z,0.00
2018-08-31T03:37:36.799Z,0.00
2018-08-31T03:38:36.781Z,0.00
2018-08-31T03:39:36.760Z,0.00
2018-08-31T03:40:36.740Z,0.00
2018-08-31T03:41:36.723Z,0.00
2018-08-31T03:42:36.704Z,0.00
2018-08-31T03:43:36.685Z,0.00
2018-08-31T03:44:36.664Z,0.00
2018-08-31T03:45:36.646Z,0.00
2018-08-31T03:46:36.627Z,0.00
2018-08-31T03:47:36.614Z,0.00
2018-08-31T03:48:36.589Z,0.00
2018-08-31T03:49:36.572Z,0.00
2018-08-31T03:50:36.555Z,0.00
2018-08-31T03:51:36.534Z,0.00
2018-08-31T03:52:36.519Z,0.00
2018-08-31T03:53:36.498Z,0.00
2018-08-31T03:54:36.477Z,0.00
2018-08-31T03:55:36.460Z,0.00
2018-08-31T03:56:36.442Z,0.00
2018-08-31T03:57:36.425Z,0.00
2018-08-31T03:58:36.412Z,0.00
2018-08-31T03:59:36.383Z,0.00
2018-08-31T04:00:36.365Z,0.00
2018-08-31T04:01:36.350Z,0.00
2018-08-31T04:02:36.326Z,0.00
2018-08-31T04:03:36.308Z,0.00
2018-08-31T04:04:36.288Z,0.00
2018-08-31T04:05:36.273Z,0.00
2018-08-31T04:06:36.259Z,0.00
2018-08-31T04:07:36.233Z,0.00
2018-08-31T04:08:36.214Z,0.00
2018-08-31T04:09:36.195Z,0.00
2018-08-31T04:10:36.175Z,0.00
2018-08-31T04:11:36.157Z,0.00
2018-08-31T04:12:36.137Z,0.00
2018-08-31T04:13:36.125Z,0.00
2018-08-31T04:14:36.102Z,0.00
2018-08-31T04:15:36.083Z,0.00
2018-08-31T04:16:36.072Z,0.00
2018-08-31T04:17:36.045Z,0.00
2018-08-31T04:18:36.024Z,0.00
2018-08-31T04:19:36.006Z,0.00
2018-08-31T04:20:35.989Z,0.00
2018-08-31T04:21:35.967Z,0.00
2018-08-31T04:22:35.951Z,0.00
2018-08-31T04:23:35.939Z,0.00
2018-08-31T04:24:35.911Z,0.00
2018-08-31T04:25:36.107Z,0.00
2018-08-31T04:26:35.878Z,0.00
2018-08-31T04:27:35.856Z,0.00
2018-08-31T04:28:35.833Z,0.00
2018-08-31T04:29:35.816Z,0.00
2018-08-31T04:30:35.801Z,0.00
2018-08-31T04:31:35.784Z,0.00
2018-08-31T04:32:35.762Z,0.00
2018-08-31T04:33:35.742Z,0.00
2018-08-31T04:34:35.723Z,0.00
2018-08-31T04:35:35.713Z,0.00
2018-08-31T04:36:35.690Z,0.00
2018-08-31T04:37:35.669Z,0.00
2018-08-31T04:38:35.650Z,0.00
2018-08-31T04:39:35.630Z,0.00
2018-08-31T04:40:35.612Z,0.00
2018-08-31T04:41:35.591Z,0.00
2018-08-31T04:42:35.573Z,0.00
2018-08-31T04:43:35.554Z,0.00
2018-08-31T04:44:35.532Z,0.00
2018-08-31T04:45:35.514Z,0.00
2018-08-31T04:46:35.506Z,0.00
2018-08-31T04:47:35.490Z,0.00
2018-08-31T04:48:35.457Z,0.00
2018-08-31T04:49:35.438Z,0.00
2018-08-31T04:50:35.442Z,0.00
2018-08-31T04:51:35.403Z,0.00
2018-08-31T04:52:35.382Z,0.00
2018-08-31T04:53:35.362Z,0.00
2018-08-31T04:54:35.350Z,0.00
2018-08-31T04:55:35.326Z,0.00
2018-08-31T04:56:35.307Z,0.00
2018-08-31T04:57:35.296Z,0.00
2018-08-31T04:58:35.277Z,0.00
2018-08-31T04:59:35.257Z,0.00
2018-08-31T05:00:35.231Z,0.00
2018-08-31T05:01:35.213Z,0.00
2018-08-31T05:02:35.195Z,0.00
2018-08-31T05:03:35.174Z,0.00
2018-08-31T05:04:35.157Z,0.00
2018-08-31T05:05:35.141Z,0.00
2018-08-31T05:06:35.323Z,0.00
2018-08-31T05:07:35.102Z,0.00
2018-08-31T05:08:35.080Z,0.00
2018-08-31T05:09:35.064Z,0.00
2018-08-31T05:10:35.043Z,0.00
2018-08-31T05:11:35.025Z,0.00
2018-08-31T05:12:35.008Z,0.00
2018-08-31T05:13:34.994Z,0.00
2018-08-31T05:14:34.990Z,0.00
2018-08-31T05:15:34.955Z,0.00
2018-08-31T05:16:34.934Z,0.00
2018-08-31T05:17:35.243Z,0.00
2018-08-31T05:18:34.893Z,0.00
2018-08-31T05:19:34.875Z,0.00
2018-08-31T05:20:34.854Z,0.00
2018-08-31T05:21:34.835Z,0.00
2018-08-31T05:22:34.864Z,0.00
2018-08-31T05:23:34.798Z,0.00
2018-08-31T05:24:34.855Z,0.00
2018-08-31T05:25:34.761Z,0.00
2018-08-31T05:26:34.748Z,0.00
2018-08-31T05:27:34.724Z,0.00
2018-08-31T05:28:34.959Z,0.00
2018-08-31T05:29:34.710Z,0.00
2018-08-31T05:30:34.667Z,0.00
2018-08-31T05:31:34.648Z,0.00
2018-08-31T05:32:34.630Z,0.00
2018-08-31T05:33:34.611Z,0.00
2018-08-31T05:34:34.592Z,5.63
2018-08-31T05:35:34.573Z,5.63
2018-08-31T05:36:34.553Z,5.63
2018-08-31T05:37:34.537Z,5.63
2018-08-31T05:38:34.738Z,5.63
2018-08-31T05:39:34.497Z,5.63
2018-08-31T05:40:34.477Z,5.63
2018-08-31T05:41:34.463Z,5.63
2018-08-31T05:42:34.441Z,5.63
2018-08-31T05:43:34.422Z,5.63
2018-08-31T05:44:34.409Z,5.63
2018-08-31T05:45:34.384Z,5.63
2018-08-31T05:46:34.366Z,5.63
2018-08-31T05:47:34.347Z,5.63
2018-08-31T05:48:34.329Z,5.63
2018-08-31T05:49:34.310Z,5.63
2018-08-31T05:50:34.296Z,5.63
2018-08-31T05:51:34.273Z,5.63
2018-08-31T05:52:34.254Z,5.63
2018-08-31T05:53:34.393Z,5.63
2018-08-31T05:54:34.224Z,5.63
2018-08-31T05:55:34.197Z,5.63
2018-08-31T05:56:34.178Z,5.63
2018-08-31T05:57:34.163Z,5.63
2018-08-31T05:58:34.145Z,5.63
2018-08-31T05:59:34.124Z,5.63
2018-08-31T06:00:34.102Z,5.63
2018-08-31T06:01:34.088Z,5.63
2018-08-31T06:02:34.071Z,5.63
2018-08-31T06:03:34.048Z,5.63
2018-08-31T06:04:34.029Z,5.63
2018-08-31T06:05:34.011Z,5.63
2018-08-31T06:06:33.992Z,5.63
2018-08-31T06:07:33.975Z,5.63
2018-08-31T06:08:33.955Z,5.63
2018-08-31T06:09:33.937Z,5.63
2018-08-31T06:10:33.918Z,5.63
2018-08-31T06:11:33.902Z,5.63
2018-08-31T06:12:33.879Z,5.63
2018-08-31T06:13:33.862Z,11.25
2018-08-31T06:14:33.846Z,11.25
2018-08-31T06:15:33.833Z,11.25
2018-08-31T06:16:33.809Z,11.25
2018-08-31T06:17:33.786Z,11.25
2018-08-31T06:18:33.770Z,11.25
2018-08-31T06:19:33.752Z,11.25
2018-08-31T06:20:33.732Z,11.25
2018-08-31T06:21:33.713Z,11.25
2018-08-31T06:22:33.708Z,11.25
2018-08-31T06:23:33.679Z,11.25
2018-08-31T06:24:33.660Z,11.25
2018-08-31T06:25:33.639Z,11.25
2018-08-31T06:26:33.620Z,11.25
2018-08-31T06:27:33.606Z,11.25
2018-08-31T06:28:33.594Z,11.25
2018-08-31T06:29:33.563Z,11.25
2018-08-31T06:30:33.545Z,11.25
2018-08-31T06:31:33.527Z,11.25
2018-08-31T06:32:33.557Z,11.25
2018-08-31T06:33:33.493Z,11.25
2018-08-31T06:34:33.470Z,11.25
2018-08-31T06:35:33.453Z,11.25
2018-08-31T06:36:33.434Z,11.25
2018-08-31T06:37:33.415Z,11.25
2018-08-31T06:38:33.399Z,11.25
2018-08-31T06:39:33.380Z,11.25
2018-08-31T06:40:33.438Z,11.25
2018-08-31T06:41:33.343Z,11.25
2018-08-31T06:42:33.326Z,11.25
2018-08-31T06:43:33.308Z,11.25
2018-08-31T06:44:33.289Z,16.88
2018-08-31T06:45:33.269Z,16.88
2018-08-31T06:46:33.252Z,16.88
2018-08-31T06:47:33.233Z,16.88
2018-08-31T06:48:33.216Z,16.88
2018-08-31T06:49:33.200Z,16.88
2018-08-31T06:50:33.178Z,16.88
2018-08-31T06:51:33.223Z,16.88
2018-08-31T06:52:33.144Z,16.88
2018-08-31T06:53:33.126Z,16.88
2018-08-31T06:54:33.108Z,16.88
2018-08-31T06:55:33.088Z,16.88
2018-08-31T06:56:33.067Z,16.88
2018-08-31T06:57:33.049Z,16.88
2018-08-31T06:58:33.029Z,16.88
2018-08-31T06:59:33.019Z,16.88
2018-08-31T07:00:32.994Z,16.88
2018-08-31T07:01:32.978Z,16.88
2018-08-31T07:02:32.957Z,16.88
2018-08-31T07:03:32.949Z,16.88
2018-08-31T07:04:32.933Z,16.88
2018-08-31T07:05:32.912Z,16.88
2018-08-31T07:06:32.885Z,16.88
2018-08-31T07:07:32.866Z,16.88
2018-08-31T07:08:32.852Z,16.88
2018-08-31T07:09:32.836Z,16.88
2018-08-31T07:10:32.822Z,16.88
2018-08-31T07:11:32.794Z,16.88
2018-08-31T07:12:32.910Z,16.88
2018-08-31T07:13:32.755Z,16.88
2018-08-31T07:14:32.738Z,16.88
2018-08-31T07:15:32.727Z,16.88
2018-08-31T07:16:32.703Z,16.88
2018-08-31T07:17:32.690Z,22.50
2018-08-31T07:18:32.673Z,22.50
2018-08-31T07:19:32.648Z,22.50
2018-08-31T07:20:32.636Z,22.50
2018-08-31T07:21:32.612Z,22.50
2018-08-31T07:22:32.594Z,22.50
2018-08-31T07:23:32.577Z,22.50
2018-08-31T07:24:32.565Z,22.50
2018-08-31T07:25:32.538Z,22.50
2018-08-31T07:26:32.611Z,22.50
2018-08-31T07:27:32.509Z,22.50
2018-08-31T07:28:32.484Z,22.50
2018-08-31T07:29:32.464Z,22.50
2018-08-31T07:30:32.450Z,22.50
2018-08-31T07:31:32.433Z,22.50
2018-08-31T07:32:32.419Z,22.50
2018-08-31T07:33:32.400Z,22.50
2018-08-31T07:34:32.377Z,22.50
2018-08-31T07:35:32.359Z,22.50
2018-08-31T07:36:32.342Z,22.50
2018-08-31T07:37:32.324Z,28.13
2018-08-31T07:38:32.306Z,22.50
2018-08-31T07:39:32.299Z,28.13
2018-08-31T07:40:32.271Z,28.13
2018-08-31T07:41:32.253Z,28.13
2018-08-31T07:42:32.234Z,28.13
2018-08-31T07:43:32.217Z,28.13
2018-08-31T07:44:32.196Z,33.75
2018-08-31T07:45:32.180Z,28.13
2018-08-31T07:46:32.163Z,28.13
2018-08-31T07:47:32.149Z,28.13
2018-08-31T07:48:32.127Z,28.13
2018-08-31T07:49:32.110Z,28.13
2018-08-31T07:50:32.092Z,28.13
2018-08-31T07:51:32.074Z,28.13
2018-08-31T07:52:32.057Z,28.13
2018-08-31T07:53:32.044Z,28.13
2018-08-31T07:54:32.020Z,28.13
2018-08-31T07:55:32.002Z,28.13
2018-08-31T07:56:31.992Z,28.13
2018-08-31T07:57:31.968Z,28.13
2018-08-31T07:58:31.953Z,28.13
2018-08-31T07:59:31.938Z,28.13
2018-08-31T08:00:31.917Z,28.13
2018-08-31T08:01:31.908Z,28.13
2018-08-31T08:02:31.881Z,28.13
2018-08-31T08:03:31.863Z,22.50
2018-08-31T08:04:31.849Z,22.50
2018-08-31T08:05:31.868Z,22.50
2018-08-31T08:06:31.811Z,28.13
2018-08-31T08:07:31.869Z,28.13
2018-08-31T08:08:31.786Z,28.13
2018-08-31T08:09:31.771Z,28.13
2018-08-31T08:10:31.744Z,28.13
2018-08-31T08:11:31.723Z,28.13
2018-08-31T08:12:31.710Z,28.13
2018-08-31T08:13:31.688Z,28.13
2018-08-31T08:14:31.710Z,28.13
2018-08-31T08:15:31.653Z,28.13
2018-08-31T08:16:31.660Z,28.13
2018-08-31T08:17:31.620Z,28.13
2018-08-31T08:18:31.604Z,28.13
2018-08-31T08:19:31.583Z,28.13
2018-08-31T08:20:31.566Z,28.13
2018-08-31T08:21:31.549Z,28.13
2018-08-31T08:22:31.530Z,28.13
2018-08-31T08:23:31.514Z,28.13
2018-08-31T08:24:31.503Z,28.13
2018-08-31T08:25:31.477Z,28.13
2018-08-31T08:26:31.461Z,28.13
2018-08-31T08:27:31.444Z,28.13
2018-08-31T08:28:31.501Z,22.50
2018-08-31T08:29:31.414Z,22.50
2018-08-31T08:30:31.391Z,22.50
2018-08-31T08:31:31.379Z,22.50
2018-08-31T08:32:31.364Z,22.50
2018-08-31T08:33:31.344Z,22.50
2018-08-31T08:34:31.320Z,22.50
2018-08-31T08:35:31.314Z,22.50
2018-08-31T08:36:31.285Z,22.50
2018-08-31T08:37:31.271Z,22.50
2018-08-31T08:38:31.251Z,22.50
2018-08-31T08:39:31.236Z,22.50
2018-08-31T08:40:31.215Z,22.50
2018-08-31T08:41:31.202Z,22.50
2018-08-31T08:42:31.269Z,22.50
2018-08-31T08:43:31.166Z,22.50
2018-08-31T08:44:31.153Z,22.50
2018-08-31T08:45:31.131Z,22.50
2018-08-31T08:46:31.114Z,22.50
2018-08-31T08:47:31.097Z,22.50
2018-08-31T08:48:31.217Z,22.50
2018-08-31T08:49:31.058Z,22.50
2018-08-31T08:50:31.044Z,22.50
2018-08-31T08:51:31.029Z,22.50
2018-08-31T08:52:31.007Z,22.50
2018-08-31T08:53:30.990Z,22.50
2018-08-31T08:54:30.973Z,22.50
2018-08-31T08:55:30.955Z,22.50
2018-08-31T08:56:30.938Z,22.50
2018-08-31T08:57:30.920Z,22.50
2018-08-31T08:58:30.903Z,22.50
2018-08-31T08:59:30.885Z,22.50
2018-08-31T09:00:30.867Z,22.50
2018-08-31T09:01:30.848Z,22.50
2018-08-31T09:02:30.833Z,22.50
2018-08-31T09:03:30.813Z,22.50
2018-08-31T09:04:30.794Z,22.50
2018-08-31T09:05:30.786Z,22.50
2018-08-31T09:06:30.762Z,22.50
2018-08-31T09:07:30.744Z,22.50
2018-08-31T09:08:30.729Z,22.50
2018-08-31T09:09:30.715Z,22.50
2018-08-31T09:10:30.690Z,22.50
2018-08-31T09:11:30.680Z,22.50
2018-08-31T09:12:30.759Z,22.50
2018-08-31T09:13:30.637Z,22.50
2018-08-31T09:14:30.621Z,22.50
2018-08-31T09:15:30.603Z,22.50
2018-08-31T09:16:30.584Z,22.50
2018-08-31T09:17:30.574Z,22.50
2018-08-31T09:18:30.641Z,16.88
2018-08-31T09:19:30.532Z,22.50
2018-08-31T09:20:30.523Z,28.13
2018-08-31T09:21:30.496Z,22.50
2018-08-31T09:22:30.481Z,22.50
2018-08-31T09:23:30.470Z,22.50
2018-08-31T09:24:30.451Z,22.50
2018-08-31T09:25:30.432Z,22.50
2018-08-31T09:26:30.411Z,22.50
2018-08-31T09:27:30.396Z,22.50
2018-08-31T09:28:30.375Z,22.50
2018-08-31T09:29:30.357Z,28.13
2018-08-31T09:30:30.343Z,28.13
2018-08-31T09:31:30.322Z,28.13
2018-08-31T09:32:30.361Z,28.13
2018-08-31T09:33:30.297Z,28.13
2018-08-31T09:34:30.272Z,28.13
2018-08-31T09:35:30.254Z,28.13
2018-08-31T09:36:30.239Z,28.13
2018-08-31T09:37:30.217Z,28.13
2018-08-31T09:38:30.226Z,28.13
2018-08-31T09:39:30.184Z,28.13
2018-08-31T09:40:30.177Z,33.75
2018-08-31T09:41:30.154Z,28.13
2018-08-31T09:42:30.133Z,22.50
2018-08-31T09:43:30.114Z,22.50
2018-08-31T09:44:30.099Z,22.50
2018-08-31T09:45:30.096Z,22.50
2018-08-31T09:46:30.059Z,22.50
2018-08-31T09:47:30.045Z,22.50
2018-08-31T09:48:30.026Z,22.50
2018-08-31T09:49:30.017Z,16.88
2018-08-31T09:50:29.995Z,16.88
2018-08-31T09:51:29.979Z,16.88
2018-08-31T09:52:29.960Z,16.88
2018-08-31T09:53:29.940Z,16.88
2018-08-31T09:54:29.928Z,16.88
2018-08-31T09:55:29.904Z,16.88
2018-08-31T09:56:29.888Z,16.88
2018-08-31T09:57:29.996Z,16.88
2018-08-31T09:58:29.854Z,22.50
2018-08-31T09:59:29.836Z,22.50
2018-08-31T10:00:29.818Z,22.50
2018-08-31T10:01:29.805Z,22.50
2018-08-31T10:02:29.783Z,22.50
2018-08-31T10:03:29.768Z,22.50
2018-08-31T10:04:29.748Z,22.50
2018-08-31T10:05:29.734Z,22.50
2018-08-31T10:06:29.725Z,22.50
2018-08-31T10:07:29.700Z,22.50
2018-08-31T10:08:29.681Z,28.13
2018-08-31T10:09:29.672Z,28.13
2018-08-31T10:10:29.645Z,28.13
2018-08-31T10:11:29.631Z,28.13
2018-08-31T10:12:29.609Z,28.13
2018-08-31T10:13:29.641Z,28.13
2018-08-31T10:14:29.579Z,28.13
2018-08-31T10:15:29.559Z,28.13
2018-08-31T10:16:29.541Z,28.13
2018-08-31T10:17:29.524Z,22.50
2018-08-31T10:18:29.506Z,22.50
2018-08-31T10:19:29.490Z,22.50
2018-08-31T10:20:29.483Z,22.50
2018-08-31T10:21:29.461Z,22.50
2018-08-31T10:22:29.440Z,22.50
2018-08-31T10:23:29.422Z,22.50
2018-08-31T10:24:29.403Z,22.50
2018-08-31T10:25:29.385Z,22.50
2018-08-31T10:26:29.371Z,22.50
2018-08-31T10:27:29.353Z,22.50
2018-08-31T10:28:29.334Z,22.50
2018-08-31T10:29:29.317Z,22.50
2018-08-31T10:30:29.309Z,22.50
2018-08-31T10:31:29.289Z,22.50
2018-08-31T10:32:29.283Z,22.50
2018-08-31T10:33:29.252Z,22.50
2018-08-31T10:34:29.230Z,22.50
2018-08-31T10:35:29.216Z,22.50
2018-08-31T10:36:29.196Z,22.50
2018-08-31T10:37:29.179Z,28.13
2018-08-31T10:38:29.167Z,28.13
2018-08-31T10:39:29.140Z,28.13
2018-08-31T10:40:29.128Z,28.13
2018-08-31T10:41:29.111Z,28.13
2018-08-31T10:42:29.097Z,28.13
2018-08-31T10:43:29.078Z,45.00
2018-08-31T10:44:29.059Z,45.00
2018-08-31T10:45:29.048Z,50.63
2018-08-31T10:46:29.035Z,45.00
2018-08-31T10:47:29.016Z,45.00
2018-08-31T10:48:28.999Z,50.63
2018-08-31T10:49:28.974Z,50.63
2018-08-31T10:50:28.958Z,50.63
2018-08-31T10:51:28.948Z,50.63
2018-08-31T10:52:28.925Z,50.63
2018-08-31T10:53:28.906Z,50.63
2018-08-31T10:54:28.891Z,56.25
2018-08-31T10:55:28.877Z,56.25
2018-08-31T10:56:28.858Z,56.25
2018-08-31T10:57:28.840Z,56.25
2018-08-31T10:58:28.825Z,56.25
2018-08-31T10:59:28.807Z,56.25
2018-08-31T11:00:28.786Z,56.25
2018-08-31T11:01:28.771Z,56.25
2018-08-31T11:02:28.769Z,56.25
2018-08-31T11:03:28.755Z,50.63
2018-08-31T11:04:28.721Z,45.00
2018-08-31T11:05:28.705Z,39.38
2018-08-31T11:06:28.704Z,50.63
2018-08-31T11:07:28.672Z,45.00
2018-08-31T11:08:28.655Z,50.63
2018-08-31T11:09:28.647Z,45.00
2018-08-31T11:10:28.624Z,39.38
2018-08-31T11:11:28.604Z,33.75
2018-08-31T11:12:28.652Z,33.75
2018-08-31T11:13:28.574Z,33.75
2018-08-31T11:14:28.556Z,33.75
2018-08-31T11:15:28.543Z,39.38
2018-08-31T11:16:28.522Z,39.38
2018-08-31T11:17:28.513Z,39.38
2018-08-31T11:18:28.491Z,28.13
2018-08-31T11:19:28.475Z,28.13
2018-08-31T11:20:28.463Z,28.13
2018-08-31T11:21:28.444Z,33.75
2018-08-31T11:22:28.433Z,45.00
2018-08-31T11:23:28.409Z,33.75
2018-08-31T11:24:28.395Z,28.13
2018-08-31T11:25:28.372Z,28.13
2018-08-31T11:26:28.364Z,28.13
2018-08-31T11:27:28.343Z,28.13
2018-08-31T11:28:28.322Z,28.13
2018-08-31T11:29:28.308Z,28.13
2018-08-31T11:30:28.292Z,28.13
2018-08-31T11:31:28.279Z,28.13
2018-08-31T11:32:28.256Z,28.13
2018-08-31T11:33:28.244Z,33.75
2018-08-31T11:34:28.222Z,28.13
2018-08-31T11:35:28.206Z,28.13
2018-08-31T11:36:28.189Z,28.13
2018-08-31T11:37:28.175Z,28.13
2018-08-31T11:38:28.158Z,22.50
2018-08-31T11:39:28.196Z,22.50
2018-08-31T11:40:28.122Z,22.50
2018-08-31T11:41:28.112Z,22.50
2018-08-31T11:42:28.088Z,22.50
2018-08-31T11:43:28.158Z,22.50
2018-08-31T11:44:28.065Z,28.13
2018-08-31T11:45:28.039Z,28.13
2018-08-31T11:46:28.027Z,22.50
2018-08-31T11:47:28.005Z,28.13
2018-08-31T11:48:27.989Z,28.13
2018-08-31T11:49:27.973Z,28.13
2018-08-31T11:50:27.959Z,28.13
2018-08-31T11:51:27.940Z,45.00
2018-08-31T11:52:27.925Z,39.38
2018-08-31T11:53:27.915Z,33.75
2018-08-31T11:54:27.893Z,33.75
2018-08-31T11:55:27.877Z,33.75
2018-08-31T11:56:27.855Z,33.75
2018-08-31T11:57:27.849Z,33.75
2018-08-31T11:58:27.826Z,33.75
2018-08-31T11:59:27.810Z,28.13
2018-08-31T12:00:27.805Z,28.13
2018-08-31T12:01:27.886Z,28.13
2018-08-31T12:02:27.778Z,33.75
2018-08-31T12:03:27.741Z,28.13
2018-08-31T12:04:27.728Z,28.13
2018-08-31T12:05:27.705Z,28.13
2018-08-31T12:06:27.701Z,28.13
2018-08-31T12:07:27.683Z,28.13
2018-08-31T12:08:27.655Z,28.13
2018-08-31T12:09:27.641Z,28.13
2018-08-31T12:10:27.626Z,28.13
2018-08-31T12:11:27.609Z,33.75
2018-08-31T12:12:27.590Z,33.75
2018-08-31T12:13:27.583Z,39.38
2018-08-31T12:14:27.565Z,39.38
2018-08-31T12:15:27.544Z,39.38
2018-08-31T12:16:27.527Z,45.00
2018-08-31T12:17:27.508Z,39.38
2018-08-31T12:18:27.499Z,45.00
2018-08-31T12:19:27.476Z,56.25
2018-08-31T12:20:27.460Z,61.88
2018-08-31T12:21:27.445Z,61.88
2018-08-31T12:22:27.428Z,45.00
2018-08-31T12:23:27.414Z,45.00
2018-08-31T12:24:27.396Z,45.00
2018-08-31T12:25:27.397Z,39.38
2018-08-31T12:26:27.370Z,56.25
2018-08-31T12:27:27.350Z,39.38
2018-08-31T12:28:27.330Z,39.38
2018-08-31T12:29:27.319Z,39.38
2018-08-31T12:30:27.299Z,45.00
2018-08-31T12:31:27.284Z,39.38
2018-08-31T12:32:27.266Z,39.38
2018-08-31T12:33:27.250Z,39.38
2018-08-31T12:34:27.237Z,39.38
2018-08-31T12:35:27.222Z,39.38
2018-08-31T12:36:27.200Z,45.00
2018-08-31T12:37:27.187Z,39.38
2018-08-31T12:38:27.180Z,39.38
2018-08-31T12:39:27.160Z,45.00
2018-08-31T12:40:27.138Z,45.00
2018-08-31T12:41:27.122Z,39.38
2018-08-31T12:42:27.114Z,39.38
2018-08-31T12:43:27.089Z,39.38
2018-08-31T12:44:27.087Z,45.00
2018-08-31T12:45:27.065Z,39.38
2018-08-31T12:46:27.050Z,39.38
2018-08-31T12:47:27.032Z,39.38
2018-08-31T12:48:27.011Z,45.00
2018-08-31T12:49:26.993Z,45.00
2018-08-31T12:50:26.977Z,45.00
2018-08-31T12:51:26.966Z,45.00
2018-08-31T12:52:26.946Z,61.88
2018-08-31T12:53:26.951Z,67.50
2018-08-31T12:54:26.915Z,61.88
2018-08-31T12:55:26.900Z,61.88
2018-08-31T12:56:26.886Z,61.88
2018-08-31T12:57:26.867Z,61.88
2018-08-31T12:58:26.849Z,56.25
2018-08-31T12:59:26.833Z,33.75
2018-08-31T13:00:26.823Z,50.63
2018-08-31T13:01:26.808Z,28.13
2018-08-31T13:02:26.789Z,22.50
2018-08-31T13:03:26.786Z,22.50
2018-08-31T13:04:26.754Z,22.50